Accueil
Images satellite Prévisions 15 joursClimatMétéo marine Cyclones Foudre AéroportsFAQ Actualités A propos
Météo : Europe Afrique Amérique du Nord Amérique du Sud Asie Australie-Océanie Autres
Langues Contact

Florennes, Belgique

Base aérienne

latitude: 50-14N, longitude: 004-39E, altitude: 279 m


METAR: EBFS 011155Z 19006KT 9999 FEW130 19/11 Q1019 BLU
TAF: EBFS 010759Z 0110/0119 18008KT 9999 SCT130 SCT220 BY EBWM

Heure: 13:13 (12:13 UTC)

Observation

Le bulletin a été fait il y a 18 minutes, à 11:55 UTC
Vent 6 kt de sud
Température 19°C
Humidité 60%
Pression 1019 hPa
Visibilité 10 km ou plus
Quelques nuages à une hauteur de 13000 ft

Changer d'unités

Prévision

Le bulletin a été fait il y a 4 heures et 14 minutes, à 07:59 UTC
Prévision valable du 01 à 10 UTC au 01 à 19 UTC
Vent 8 kt de sud
Visibilité 10 km ou plus
Nuages épars à une hauteur de 13000 ft
Nuages épars à une hauteur de 22000 ft
Les informations qui figurent sur ce site font l'objet d'une clause de non-responsabilité
Météo : Europe Afrique Amérique du Nord Amérique du Sud Asie Australie-Océanie Autres
Images satellite Prévisions 15 joursClimatMétéo marine Cyclones Foudre AéroportsFAQ Langues Contact Actualités A propos